.
WxDataArchive / Data Records for 2014-07-14
2014-07-13 July 2014 2014-07-15

Data Records for Monday, 14 July 2014

Time	Temp	Chill	HIndex	Humid	Dewpt	 Wind 	HiWind	WindDir	Rain 	Barom
-----	----	-----	------	-----	-----	------	------	-------	-----	-----
00:00	69.6	69.6	69.6	85	64.9	0	0	---	0.00	29.864 
00:05	69.4	69.4	69.4	85	64.7	0	0	---	0.00	29.864 
00:10	69.3	69.3	69.3	85	64.6	0	0	---	0.00	29.864 
00:15	69.1	69.1	69.1	86	64.7	0	0	---	0.00	29.859 
00:20	69.1	69.1	69.1	86	64.7	0	0	---	0.00	29.859 
00:25	68.9	68.9	68.9	86	64.5	0	0	---	0.00	29.859 
00:30	68.8	68.8	68.8	86	64.4	0	0	---	0.00	29.857 
00:35	68.8	68.8	68.8	87	64.8	0	0	---	0.00	29.857 
00:40	68.6	68.6	68.6	87	64.6	0	0	---	0.00	29.857 
00:45	68.4	68.4	68.4	87	64.4	0	0	---	0.00	29.854 
00:50	68.4	68.4	68.4	87	64.4	0	0	---	0.00	29.854 
00:55	68.4	68.4	68.4	88	64.7	0	0	---	0.00	29.854 
01:00	68.3	68.3	68.3	88	64.6	0	0	---	0.00	29.852 
01:05	68.3	68.3	68.3	88	64.6	0	0	---	0.00	29.852 
01:10	68.1	68.1	68.1	88	64.4	0	0	---	0.00	29.852 
01:15	68.1	68.1	68.1	88	64.4	0	0	---	0.00	29.849 
01:20	68.1	68.1	68.1	88	64.4	0	0	---	0.00	29.849 
01:25	68.3	68.3	68.3	89	64.9	0	0	---	0.00	29.849 
01:30	68.3	68.3	68.3	89	64.9	0	0	---	0.00	29.846 
01:35	68.3	68.3	68.3	89	64.9	0	0	---	0.00	29.846 
01:40	68.3	68.3	68.3	89	64.9	0	0	---	0.00	29.846 
01:45	68.3	68.3	68.3	89	64.9	0	0	---	0.00	29.842 
01:50	68.3	68.3	68.3	89	64.9	0	0	---	0.00	29.842 
01:55	68.3	68.3	68.3	89	64.9	0	0	---	0.00	29.842 
02:00	68.3	68.3	68.3	89	64.9	0	0	---	0.00	29.843 
02:05	68.3	68.3	68.3	89	64.9	0	0	---	0.00	29.843 
02:10	68.3	68.3	68.3	89	64.9	0	0	---	0.00	29.843 
02:15	68.3	68.3	68.3	89	64.9	0	0	---	0.00	29.839 
02:20	68.1	68.1	68.1	89	64.7	0	0	---	0.00	29.839 
02:25	68.1	68.1	68.1	89	64.7	0	0	---	0.00	29.839 
02:30	68.1	68.1	68.1	89	64.7	0	0	---	0.00	29.836 
02:35	68.1	68.1	68.1	89	64.7	0	0	---	0.00	29.836 
02:40	68.3	68.3	68.3	90	65.2	0	0	---	0.00	29.836 
02:45	68.3	68.3	68.3	90	65.2	0	0	---	0.00	29.834 
02:50	68.4	68.4	68.4	90	65.3	0	0	---	0.00	29.834 
02:55	68.4	68.4	68.4	90	65.3	0	0	---	0.00	29.834 
03:00	68.6	68.6	68.6	90	65.5	0	0	---	0.00	29.829 
03:05	68.6	68.6	68.6	90	65.5	0	0	---	0.00	29.829 
03:10	68.8	68.8	68.8	90	65.7	0	0	---	0.00	29.829 
03:15	68.9	68.9	68.9	90	65.8	0	0	---	0.00	29.821 
03:20	69.1	69.1	69.1	90	66.0	0	0	---	0.00	29.821 
03:25	69.3	69.3	69.3	89	65.9	0	0	---	0.00	29.821 
03:30	69.4	69.4	69.4	89	66.0	0	0	---	0.00	29.826 
03:35	69.6	69.6	69.6	89	66.2	0	0	---	0.00	29.826 
03:40	69.8	69.8	69.8	88	66.1	0	0	---	0.00	29.826 
03:45	69.9	69.9	69.9	88	66.2	0	0	---	0.00	29.833 
03:50	69.9	69.9	69.9	88	66.2	0	0	---	0.00	29.833 
03:55	70.1	70.1	70.1	88	66.4	0	0	---	0.00	29.833 
04:00	70.1	70.1	70.1	87	66.0	0	0	---	0.00	29.834 
04:05	70.3	70.3	70.3	87	66.2	0	0	---	0.00	29.834 
04:10	70.3	70.3	70.3	87	66.2	0	0	---	0.00	29.834 
04:15	70.4	70.4	70.4	86	66.0	0	0	---	0.00	29.835 
04:20	70.4	70.4	70.4	86	66.0	0	0	---	0.00	29.835 
04:25	70.4	70.4	70.4	86	66.0	0	0	---	0.00	29.835 
04:30	70.4	70.4	70.4	86	66.0	0	0	---	0.00	29.834 
04:35	70.3	70.3	70.3	86	65.9	0	0	---	0.00	29.834 
04:40	70.3	70.3	70.3	86	65.9	0	0	---	0.00	29.834 
04:45	70.1	70.1	70.1	86	65.7	0	0	---	0.00	29.831 
04:50	69.9	69.9	69.9	86	65.5	0	0	---	0.00	29.831 
04:55	69.9	69.9	69.9	86	65.5	0	0	---	0.00	29.831 
05:00	69.9	69.9	69.9	86	65.5	0	0	---	0.00	29.827 
05:05	69.8	69.8	69.8	87	65.7	0	0	---	0.00	29.827 
05:10	69.8	69.8	69.8	87	65.7	0	0	---	0.00	29.827 
05:15	69.8	69.8	69.8	87	65.7	0	0	---	0.00	29.824 
05:20	69.8	69.8	69.8	87	65.7	0	0	---	0.00	29.824 
05:25	69.8	69.8	69.8	87	65.7	0	0	---	0.00	29.824 
05:30	69.8	69.8	69.8	87	65.7	0	0	---	0.00	29.821 
05:35	69.8	69.8	69.8	87	65.7	0	0	---	0.00	29.821 
05:40	69.8	69.8	69.8	87	65.7	0	0	---	0.00	29.821 
05:45	69.8	69.8	69.8	87	65.7	0	0	---	0.00	29.824 
05:50	69.9	69.9	69.9	87	65.8	0	1	270	0.00	29.824 
05:55	69.9	69.9	69.9	87	65.8	0	0	---	0.00	29.824 
06:00	69.9	69.9	69.9	87	65.8	0	0	---	0.00	29.829 
06:05	69.9	69.9	69.9	87	65.8	0	0	---	0.00	29.829 
06:10	69.9	69.9	69.9	87	65.8	0	1	270	0.00	29.829 
06:15	69.9	69.9	69.9	87	65.8	0	0	---	0.00	29.827 
06:20	69.9	69.9	69.9	87	65.8	0	0	---	0.00	29.827 
06:25	69.9	69.9	69.9	87	65.8	0	1	270	0.00	29.827 
06:30	69.9	69.9	69.9	87	65.8	0	0	---	0.00	29.833 
06:35	69.9	69.9	69.9	87	65.8	0	0	---	0.00	29.833 
06:40	69.9	69.9	69.9	87	65.8	0	0	---	0.00	29.833 
06:45	69.9	69.9	69.9	87	65.8	0	0	---	0.00	29.834 
06:50	69.9	69.9	69.9	87	65.8	0	0	---	0.00	29.834 
06:55	69.9	69.9	69.9	87	65.8	0	0	---	0.00	29.834 
07:00	69.9	69.9	69.9	87	65.8	0	0	---	0.00	29.830 
07:05	70.1	70.1	70.1	87	66.0	0	0	---	0.00	29.830 
07:10	70.1	70.1	70.1	87	66.0	0	0	---	0.00	29.830 
07:15	70.1	70.1	70.1	87	66.0	0	1	270	0.00	29.836 
07:20	70.1	70.1	70.1	87	66.0	0	1	270	0.00	29.836 
07:25	70.1	70.1	70.1	87	66.0	0	1	270	0.00	29.836 
07:30	70.3	70.3	70.3	87	66.2	0	1	270	0.00	29.836 
07:35	70.3	70.3	70.3	86	65.9	0	1	270	0.00	29.836 
07:40	70.3	70.3	70.3	86	65.9	0	2	270	0.00	29.836 
07:45	70.4	70.4	70.4	86	66.0	0	2	270	0.00	29.836 
07:50	70.4	70.4	70.4	85	65.7	0	2	270	0.00	29.836 
07:55	70.6	70.6	70.6	85	65.9	0	2	270	0.00	29.836 
08:00	70.6	70.6	70.6	85	65.9	0	3	270	0.00	29.832 
08:05	70.6	70.6	70.6	84	65.5	0	2	270	0.00	29.832 
08:10	70.8	70.8	70.8	84	65.7	0	1	270	0.00	29.832 
08:15	70.8	70.8	70.8	84	65.7	0	1	270	0.00	29.836 
08:20	70.8	70.8	70.8	84	65.7	0	1	270	0.00	29.836 
08:25	70.9	70.9	70.9	84	65.8	0	1	270	0.00	29.836 
08:30	71.1	71.1	71.1	84	66.0	0	2	270	0.00	29.836 
08:35	71.3	71.3	71.3	84	66.2	0	2	270	0.00	29.836 
08:40	71.5	71.5	71.5	83	66.1	0	0	---	0.00	29.836 
08:45	71.8	71.8	71.8	82	66.0	0	1	270	0.00	29.836 
08:50	72.1	72.1	72.1	81	65.9	0	2	270	0.00	29.836 
08:55	72.3	72.3	72.3	80	65.8	0	2	270	0.00	29.836 
09:00	72.3	72.3	72.3	80	65.8	0	1	270	0.00	29.835 
09:05	72.5	72.5	72.5	80	66.0	0	1	270	0.00	29.835 
09:10	72.5	72.5	72.5	80	66.0	0	0	---	0.00	29.835 
09:15	72.7	72.7	72.7	80	66.2	0	0	---	0.00	29.836 
09:20	73.0	73.0	73.0	79	66.1	0	0	---	0.00	29.836 
09:25	73.3	73.3	73.3	78	66.0	0	1	270	0.00	29.836 
09:30	73.9	73.9	73.9	78	66.6	0	3	270	0.00	29.837 
09:35	73.9	73.9	73.9	76	65.8	0	2	270	0.00	29.837 
09:40	74.0	74.0	74.0	76	65.9	0	1	270	0.00	29.837 
09:45	74.2	74.2	74.2	75	65.8	0	2	270	0.00	29.838 
09:50	74.4	74.4	74.4	74	65.6	0	1	270	0.00	29.838 
09:55	74.9	74.9	74.9	74	66.0	0	1	270	0.00	29.838 
10:00	75.3	75.3	76.8	72	65.6	1	2	270	0.00	29.838 
10:05	75.3	75.3	76.9	71	65.2	0	2	270	0.00	29.838 
10:10	75.6	75.6	77.1	72	65.9	1	2	270	0.00	29.838 
10:15	75.8	75.8	77.6	68	64.5	1	2	270	0.00	29.845 
10:20	76.3	76.3	77.9	71	66.2	0	2	270	0.00	29.845 
10:25	76.5	76.5	78.3	65	63.8	1	2	270	0.00	29.845 
10:30	76.7	76.7	78.5	62	62.7	1	4	270	0.00	29.845 
10:35	76.8	76.8	78.6	62	62.8	1	3	270	0.00	29.845 
10:40	77.4	77.4	79.1	59	61.9	0	2	270	0.00	29.845 
10:45	78.1	78.1	79.8	60	63.1	1	3	270	0.00	29.840 
10:50	78.1	78.1	79.5	54	60.1	2	4	270	0.00	29.840 
10:55	78.1	78.1	79.5	55	60.6	1	3	270	0.00	29.840 
11:00	78.1	78.1	79.3	50	57.9	1	2	270	0.00	29.838 
11:05	78.6	78.6	79.8	52	59.5	1	3	270	0.00	29.838 
11:10	78.8	78.8	79.6	47	56.8	1	3	270	0.00	29.838 
11:15	79.0	79.0	79.8	47	57.0	1	4	270	0.00	29.842 
11:20	79.2	79.2	79.8	46	56.6	1	4	270	0.00	29.842 
11:25	79.4	79.4	80.0	46	56.8	1	3	270	0.00	29.842 
11:30	79.8	79.8	80.3	46	57.2	0	2	270	0.00	29.840 
11:35	79.9	79.9	80.4	46	57.2	1	4	270	0.00	29.840 
11:40	80.1	80.1	80.3	44	56.2	1	3	315	0.00	29.840 
11:45	80.3	80.3	80.3	42	55.1	1	3	315	0.00	29.839 
11:50	80.7	80.7	80.7	43	56.1	1	2	315	0.00	29.839 
11:55	81.1	81.1	81.3	45	57.7	1	2	315	0.00	29.839 
12:00	81.4	81.4	81.4	44	57.4	0	2	315	0.00	29.838 
12:05	81.8	81.8	81.2	39	54.4	1	3	315	0.00	29.838 
12:10	81.6	81.6	80.5	34	50.5	1	4	315	0.00	29.838 
12:15	81.6	81.6	80.7	36	52.0	1	2	315	0.00	29.837 
12:20	82.0	82.0	81.3	39	54.6	0	3	315	0.00	29.837 
12:25	82.0	82.0	81.5	40	55.3	1	3	315	0.00	29.837 
12:30	82.2	82.2	80.9	33	50.2	1	2	315	0.00	29.833 
12:35	82.0	82.0	80.7	33	50.0	1	3	315	0.00	29.833 
12:40	82.0	82.0	80.9	35	51.6	0	1	315	0.00	29.833 
12:45	82.2	82.2	81.3	37	53.3	0	2	315	0.00	29.826 
12:50	82.6	82.6	81.5	36	52.9	0	3	315	0.00	29.826 
12:55	82.4	82.4	81.0	33	50.4	1	3	315	0.00	29.826 
13:00	82.4	82.4	81.2	35	52.0	0	2	315	0.00	29.822 
13:05	82.6	82.6	81.2	33	50.6	1	2	315	0.00	29.822 
13:10	83.0	83.0	81.7	35	52.5	1	3	0	0.00	29.822 
13:15	83.2	83.2	81.6	32	50.2	2	4	292	0.00	29.810 
13:20	83.2	83.2	81.6	32	50.2	0	3	292	0.00	29.810 
13:25	83.2	83.2	81.8	34	51.9	0	2	292	0.00	29.810 
13:30	82.8	82.8	81.2	32	49.9	0	1	292	0.00	29.809 
13:35	82.6	82.6	81.3	34	51.4	0	2	292	0.00	29.809 
13:40	82.6	82.6	81.4	35	52.1	0	3	292	0.00	29.809 
13:45	82.8	82.8	81.6	35	52.3	0	1	292	0.00	29.806 
13:50	82.8	82.8	81.8	37	53.8	0	2	292	0.00	29.806 
13:55	83.0	83.0	81.7	35	52.5	1	2	292	0.00	29.806 
14:00	83.4	83.4	82.1	35	52.8	0	2	292	0.00	29.794 
14:05	83.8	83.8	82.5	36	54.0	0	2	292	0.00	29.794 
14:10	83.8	83.8	82.3	34	52.4	0	2	292	0.00	29.794 
14:15	83.8	83.8	82.4	35	53.2	0	1	292	0.00	29.787 
14:20	84.1	84.1	82.4	33	51.9	1	3	45	0.00	29.787 
14:25	84.7	84.7	83.1	34	53.2	1	4	45	0.00	29.787 
14:30	85.3	85.3	83.8	35	54.5	0	2	292	0.00	29.778 
14:35	85.7	85.7	84.2	35	54.9	1	3	292	0.00	29.778 
14:40	85.7	85.7	83.9	33	53.2	1	3	292	0.00	29.778 
14:45	85.9	85.9	84.2	34	54.2	0	2	292	0.00	29.773 
14:50	85.9	85.9	83.8	31	51.7	1	4	112	0.00	29.773 
14:55	85.9	85.9	83.9	32	52.6	1	3	112	0.00	29.773 
15:00	86.1	86.1	84.1	32	52.8	1	2	112	0.00	29.764 
15:05	86.3	86.3	84.5	33	53.8	0	2	112	0.00	29.764 
15:10	86.5	86.5	85.0	35	55.6	0	3	112	0.00	29.764 
15:15	86.7	86.7	84.6	31	52.4	1	3	112	0.00	29.755 
15:20	86.7	86.7	84.7	32	53.3	1	4	112	0.00	29.755 
15:25	86.1	86.1	84.6	35	55.2	1	3	112	0.00	29.755 
15:30	86.1	86.1	84.6	35	55.2	0	2	112	0.00	29.753 
15:35	85.9	85.9	84.4	35	55.0	0	3	112	0.00	29.753 
15:40	85.5	85.5	84.3	37	56.2	1	4	112	0.00	29.753 
15:45	85.7	85.7	84.5	37	56.4	0	2	112	0.00	29.752 
15:50	85.5	85.5	84.0	35	54.7	1	3	112	0.00	29.752 
15:55	85.3	85.3	83.6	34	53.7	1	3	112	0.00	29.752 
16:00	85.3	85.3	83.8	35	54.5	1	3	112	0.00	29.757 
16:05	84.9	84.9	83.6	36	54.9	0	2	112	0.00	29.757 
16:10	84.5	84.5	83.2	36	54.6	1	3	90	0.00	29.757 
16:15	84.1	84.1	82.8	36	54.2	0	3	90	0.00	29.759 
16:20	84.0	84.0	83.1	39	56.3	0	3	90	0.00	29.759 
16:25	83.6	83.6	83.0	41	57.4	1	2	90	0.00	29.759 
16:30	83.2	83.2	82.5	40	56.3	0	1	90	0.00	29.771 
16:35	83.0	83.0	82.3	40	56.2	1	3	90	0.00	29.771 
16:40	82.6	82.6	82.0	40	55.8	1	3	90	0.00	29.771 
16:45	82.4	82.4	81.8	40	55.6	0	2	90	0.00	29.775 
16:50	82.0	82.0	81.5	40	55.3	1	3	90	0.00	29.775 
16:55	81.8	81.8	81.3	40	55.1	0	2	90	0.00	29.775 
17:00	81.6	81.6	81.2	41	55.6	1	3	90	0.00	29.782 
17:05	81.4	81.4	81.3	43	56.7	1	3	90	0.00	29.782 
17:10	81.1	81.1	81.5	47	58.9	1	2	90	0.00	29.782 
17:15	80.1	80.1	81.2	53	61.4	1	3	90	0.01	29.788 
17:20	78.5	78.5	80.2	60	63.4	0	1	90	0.01	29.788 
17:25	76.5	76.5	78.3	66	64.3	0	2	90	0.02	29.788 
17:30	74.6	74.6	74.6	69	63.7	1	4	90	0.01	29.800 
17:35	73.0	73.0	73.0	73	63.8	0	2	90	0.02	29.800 
17:40	71.6	71.6	71.6	78	64.4	0	2	90	0.02	29.800 
17:45	70.9	70.9	70.9	81	64.8	0	1	90	0.02	29.780 
17:50	70.3	70.3	70.3	83	64.9	0	2	90	0.00	29.780 
17:55	69.6	69.6	69.6	84	64.5	0	3	90	0.01	29.780 
18:00	69.1	69.1	69.1	85	64.4	0	1	90	0.00	29.767 
18:05	68.9	68.9	68.9	86	64.5	1	2	90	0.00	29.767 
18:10	68.8	68.8	68.8	87	64.8	0	2	90	0.00	29.767 
18:15	68.6	68.6	68.6	86	64.2	0	2	90	0.00	29.758 
18:20	68.6	68.6	68.6	87	64.6	0	0	---	0.00	29.758 
18:25	68.6	68.6	68.6	88	64.9	0	0	---	0.00	29.758 
18:30	68.6	68.6	68.6	88	64.9	0	0	---	0.00	29.755 
18:35	68.6	68.6	68.6	88	64.9	0	0	---	0.00	29.755 
18:40	68.4	68.4	68.4	88	64.7	0	0	---	0.00	29.755 
18:45	68.6	68.6	68.6	88	64.9	0	0	---	0.00	29.757 
18:50	68.6	68.6	68.6	88	64.9	0	0	---	0.00	29.757 
18:55	68.9	68.9	68.9	89	65.5	0	0	---	0.00	29.757 
19:00	68.9	68.9	68.9	89	65.5	0	1	90	0.00	29.765 
19:05	69.3	69.3	69.3	89	65.9	0	0	---	0.00	29.765 
19:10	69.3	69.3	69.3	88	65.6	0	0	---	0.00	29.765 
19:15	69.4	69.4	69.4	89	66.0	0	0	---	0.00	29.767 
19:20	69.4	69.4	69.4	88	65.7	0	1	90	0.00	29.767 
19:25	69.4	69.4	69.4	88	65.7	0	1	90	0.00	29.767 
19:30	69.4	69.4	69.4	88	65.7	0	0	---	0.00	29.763 
19:35	69.4	69.4	69.4	88	65.7	0	1	90	0.00	29.763 
19:40	69.3	69.3	69.3	87	65.3	0	1	90	0.00	29.763 
19:45	69.1	69.1	69.1	86	64.7	0	1	90	0.00	29.764 
19:50	69.1	69.1	69.1	85	64.4	0	1	90	0.00	29.764 
19:55	68.9	68.9	68.9	85	64.2	0	1	90	0.00	29.764 
20:00	68.8	68.8	68.8	84	63.8	0	1	90	0.00	29.767 
20:05	68.6	68.6	68.6	84	63.6	0	2	90	0.00	29.767 
20:10	68.6	68.6	68.6	83	63.2	0	1	90	0.00	29.767 
20:15	68.6	68.6	68.6	84	63.6	0	2	90	0.00	29.776 
20:20	68.4	68.4	68.4	84	63.4	0	1	90	0.00	29.776 
20:25	68.4	68.4	68.4	84	63.4	0	1	90	0.00	29.776 
20:30	68.3	68.3	68.3	84	63.3	0	1	90	0.00	29.767 
20:35	68.3	68.3	68.3	84	63.3	0	1	90	0.00	29.767 
20:40	68.1	68.1	68.1	84	63.1	0	1	90	0.00	29.767 
20:45	68.1	68.1	68.1	84	63.1	0	1	90	0.00	29.765 
20:50	67.9	67.9	67.9	84	62.9	0	1	90	0.00	29.765 
20:55	67.9	67.9	67.9	84	62.9	0	1	90	0.00	29.765 
21:00	67.8	67.8	67.8	84	62.8	0	1	90	0.00	29.762 
21:05	67.6	67.6	67.6	84	62.6	0	1	90	0.00	29.762 
21:10	67.6	67.6	67.6	84	62.6	0	1	90	0.00	29.762 
21:15	67.4	67.4	67.4	84	62.4	0	2	90	0.00	29.762 
21:20	67.4	67.4	67.4	84	62.4	0	1	90	0.00	29.762 
21:25	67.3	67.3	67.3	84	62.3	0	2	90	0.00	29.762 
21:30	67.3	67.3	67.3	84	62.3	0	2	90	0.00	29.762 
21:35	67.1	67.1	67.1	85	62.4	0	1	90	0.00	29.762 
21:40	67.1	67.1	67.1	85	62.4	0	2	90	0.00	29.762 
21:45	67.1	67.1	67.1	85	62.4	0	2	90	0.00	29.754 
21:50	66.9	66.9	66.9	85	62.2	0	1	90	0.00	29.754 
21:55	66.9	66.9	66.9	86	62.6	0	1	90	0.00	29.754 
22:00	66.8	66.8	66.8	86	62.5	0	1	90	0.00	29.756 
22:05	66.8	66.8	66.8	86	62.5	0	1	90	0.00	29.756 
22:10	66.8	66.8	66.8	87	62.8	0	2	90	0.00	29.756 
22:15	66.8	66.8	66.8	87	62.8	0	3	90	0.00	29.759 
22:20	66.8	66.8	66.8	87	62.8	0	2	90	0.00	29.759 
22:25	66.8	66.8	66.8	88	63.1	0	1	90	0.00	29.759 
22:30	66.8	66.8	66.8	88	63.1	0	2	90	0.00	29.759 
22:35	66.6	66.6	66.6	88	62.9	0	1	90	0.00	29.759 
22:40	66.6	66.6	66.6	88	62.9	1	2	90	0.00	29.759 
22:45	66.6	66.6	66.6	89	63.3	0	3	90	0.00	29.761 
22:50	66.6	66.6	66.6	89	63.3	0	2	90	0.00	29.761 
22:55	66.6	66.6	66.6	89	63.3	1	3	90	0.00	29.761 
23:00	66.6	66.6	66.6	90	63.6	1	4	90	0.00	29.757 
23:05	66.6	66.6	66.6	90	63.6	1	2	90	0.00	29.757 
23:10	66.6	66.6	66.6	90	63.6	1	3	90	0.00	29.757 
23:15	66.6	66.6	66.6	90	63.6	1	3	90	0.00	29.754 
23:20	66.6	66.6	66.6	90	63.6	1	3	68	0.00	29.754 
23:25	66.6	66.6	66.6	90	63.6	1	4	292	0.00	29.754 
23:30	66.6	66.6	66.6	91	63.9	1	4	292	0.00	29.742 
23:35	66.6	66.6	66.6	91	63.9	1	3	292	0.00	29.742 
23:40	66.4	66.4	66.4	91	63.7	1	3	292	0.00	29.742 
23:45	66.4	66.4	66.4	91	63.7	1	3	270	0.00	29.741 
23:50	66.4	66.4	66.4	91	63.7	1	2	270	0.00	29.741 
23:55	66.3	66.3	66.3	91	63.6	1	2	292	0.00	29.741 

CoCoRaHS
IN-AL-39
A2 Web Hosting
Creative Commons License
GoDaddy
search engine by freefind advanced

loaded 2018-11-14 04:05:13 • last modified 2010-11-18 10:43:29
Privacy PolicyDisclaimer
• wx.awcolley.com is powered by PmWiki v.2002016 •
• all content (unless otherwise noted) © 2018 A W Colley